createdAt,value
2018-12-04T00:01:18.415Z,1.00
2018-12-04T00:06:25.268Z,0.70
2018-12-04T00:17:00.032Z,0.80
2018-12-04T00:22:03.466Z,0.63
2018-12-04T00:27:06.778Z,0.60
2018-12-04T00:32:10.211Z,0.70
2018-12-04T00:54:00.631Z,0.60
2018-12-04T00:59:09.366Z,0.50
2018-12-04T01:04:15.618Z,0.47
2018-12-04T01:09:22.210Z,0.50
2018-12-04T01:14:27.502Z,0.67
2018-12-04T01:19:30.755Z,0.63
2018-12-04T01:24:41.743Z,0.53
2018-12-04T01:29:44.978Z,0.70
2018-12-04T01:34:48.390Z,0.70
2018-12-04T01:39:51.635Z,0.80
2018-12-04T01:44:54.928Z,0.70
2018-12-04T01:55:29.315Z,0.97
2018-12-04T02:00:32.551Z,0.80
2018-12-04T02:05:42.219Z,0.60
2018-12-04T02:10:48.526Z,0.87
2018-12-04T02:21:22.990Z,0.80
2018-12-04T02:26:26.344Z,0.80
2018-12-04T02:37:00.570Z,0.63
2018-12-04T02:42:24.072Z,0.97
2018-12-04T02:52:37.097Z,0.93
2018-12-04T02:57:40.428Z,0.67
2018-12-04T03:02:49.351Z,0.90
2018-12-04T03:07:58.339Z,0.60
2018-12-04T03:13:13.935Z,0.70
2018-12-04T03:18:30.061Z,0.60
2018-12-04T03:23:37.068Z,1.13
2018-12-04T03:45:14.414Z,1.00
2018-12-04T03:50:17.603Z,0.65
2018-12-04T03:55:20.798Z,0.20
2018-12-04T04:00:43.959Z,0.20
2018-12-04T04:05:50.666Z,0.27
2018-12-04T04:11:00.874Z,0.60
2018-12-04T04:21:31.808Z,0.40
2018-12-04T04:26:35.178Z,0.50
2018-12-04T04:42:42.752Z,1.00
2018-12-04T04:47:46.065Z,1.00
2018-12-04T04:52:53.184Z,0.90
2018-12-04T04:57:59.909Z,0.87
2018-12-04T05:03:08.746Z,0.90
2018-12-04T05:08:16.052Z,1.00
2018-12-04T05:13:24.918Z,0.70
2018-12-04T05:18:34.360Z,1.07
2018-12-04T05:23:43.142Z,0.50
2018-12-04T05:28:52.579Z,1.10
2018-12-04T05:34:02.052Z,0.87
2018-12-04T05:39:08.795Z,1.00
2018-12-04T05:44:18.054Z,1.00
2018-12-04T05:49:27.413Z,1.30
2018-12-04T05:54:34.651Z,1.70
2018-12-04T05:59:40.887Z,1.50
2018-12-04T06:04:49.551Z,1.80
2018-12-04T06:10:03.275Z,1.50
2018-12-04T06:15:12.447Z,1.90
2018-12-04T06:20:17.487Z,1.97
2018-12-04T06:25:26.535Z,2.07
2018-12-04T06:30:33.266Z,2.30
2018-12-04T06:35:42.047Z,2.27
2018-12-04T06:40:51.718Z,2.20
2018-12-04T06:46:00.878Z,2.20
2018-12-04T07:06:22.080Z,2.80
2018-12-04T07:11:28.940Z,2.70
2018-12-04T07:16:36.062Z,2.50
2018-12-04T07:21:45.099Z,2.37
2018-12-04T07:26:54.570Z,3.03
2018-12-04T07:32:04.019Z,2.93
2018-12-04T07:42:42.755Z,1.67
2018-12-04T07:47:51.545Z,1.77
2018-12-04T07:53:01.068Z,1.80
2018-12-04T07:58:10.403Z,1.77
2018-12-04T08:03:20.144Z,1.93
2018-12-04T08:13:35.635Z,2.60
2018-12-04T08:18:38.945Z,2.43
2018-12-04T08:23:47.985Z,3.40
2018-12-04T08:28:57.592Z,2.60
2018-12-04T08:34:06.815Z,2.27
2018-12-04T08:39:15.813Z,2.07
2018-12-04T08:44:25.607Z,2.23
2018-12-04T08:49:34.677Z,2.20
2018-12-04T08:54:44.185Z,1.83
2018-12-04T08:59:53.623Z,1.70
2018-12-04T09:05:02.544Z,1.70
2018-12-04T09:10:11.570Z,2.00
2018-12-04T09:15:20.844Z,1.43
2018-12-04T09:20:30.103Z,2.00
2018-12-04T09:25:39.613Z,1.97
2018-12-04T09:30:49.006Z,1.70
2018-12-04T09:35:58.371Z,2.10
2018-12-04T09:41:07.202Z,1.53
2018-12-04T09:46:16.346Z,1.40
2018-12-04T09:51:25.504Z,1.43
2018-12-04T09:56:34.983Z,1.73
2018-12-04T10:01:44.118Z,1.20
2018-12-04T10:06:51.341Z,1.23
2018-12-04T10:12:00.707Z,1.00
2018-12-04T10:17:10.162Z,1.10
2018-12-04T10:22:19.683Z,1.10
2018-12-04T10:27:28.881Z,1.17
2018-12-04T10:32:37.669Z,1.80
2018-12-04T10:37:46.818Z,1.17
2018-12-04T10:42:56.080Z,1.30
2018-12-04T10:48:05.279Z,1.33
2018-12-04T10:53:12.298Z,1.40
2018-12-04T10:58:21.830Z,1.27
2018-12-04T11:03:36.541Z,1.20
2018-12-04T11:08:39.707Z,1.10
2018-12-04T11:13:42.902Z,1.10
2018-12-04T11:18:46.090Z,1.30
2018-12-04T11:23:49.360Z,1.07
2018-12-04T11:28:52.624Z,1.03
2018-12-04T11:33:56.000Z,1.17
2018-12-04T11:38:59.326Z,1.43
2018-12-04T11:44:02.616Z,1.30
2018-12-04T11:49:12.099Z,1.73
2018-12-04T11:54:23.476Z,1.33
2018-12-04T11:59:32.738Z,1.40
2018-12-04T12:04:41.918Z,1.23
2018-12-04T12:09:50.926Z,1.30
2018-12-04T12:15:04.360Z,1.47
2018-12-04T12:20:13.591Z,1.23
2018-12-04T12:25:22.891Z,1.37
2018-12-04T12:30:32.876Z,1.60
2018-12-04T12:35:41.931Z,1.13
2018-12-04T12:40:51.014Z,1.20
2018-12-04T12:45:59.665Z,1.30
2018-12-04T12:51:04.570Z,1.67
2018-12-04T12:56:24.712Z,1.43
2018-12-04T13:01:33.951Z,1.43
2018-12-04T13:06:37.305Z,1.03
2018-12-04T13:11:45.984Z,1.10
2018-12-04T13:16:52.867Z,1.30
2018-12-04T13:22:00.215Z,1.27
2018-12-04T13:27:09.843Z,1.10
2018-12-04T13:32:18.987Z,1.40
2018-12-04T13:37:28.421Z,1.20
2018-12-04T13:42:33.257Z,1.30
2018-12-04T13:47:42.125Z,1.03
2018-12-04T13:52:48.919Z,1.00
2018-12-04T13:57:58.072Z,1.37
2018-12-04T14:03:07.336Z,1.47
2018-12-04T14:08:17.104Z,1.20
2018-12-04T14:13:26.132Z,1.00
2018-12-04T14:18:35.624Z,1.20
2018-12-04T14:23:44.549Z,1.20
2018-12-04T14:28:47.826Z,0.90
2018-12-04T14:33:57.487Z,1.47
2018-12-04T14:39:09.111Z,1.33
2018-12-04T14:44:12.671Z,1.13
2018-12-04T14:49:16.056Z,0.97
2018-12-04T14:54:25.234Z,1.37
2018-12-04T14:59:28.565Z,1.43
2018-12-04T15:04:31.863Z,1.27
2018-12-04T15:09:35.329Z,1.00
2018-12-04T15:14:38.906Z,1.40
2018-12-04T15:19:42.298Z,1.50
2018-12-04T15:30:22.545Z,1.20
2018-12-04T15:35:26.194Z,0.97
2018-12-04T15:46:11.310Z,1.93
2018-12-04T15:51:14.592Z,1.20
2018-12-04T15:56:17.964Z,0.90
2018-12-04T16:01:21.159Z,1.03
2018-12-04T16:06:24.455Z,1.50
2018-12-04T16:11:27.755Z,1.30
2018-12-04T16:16:31.027Z,0.77
2018-12-04T16:21:34.186Z,1.57
2018-12-04T16:26:37.397Z,1.33
2018-12-04T16:31:40.666Z,1.27
2018-12-04T16:36:43.830Z,1.37
2018-12-04T16:41:47.023Z,1.50
2018-12-04T16:46:50.332Z,1.40
2018-12-04T16:51:53.508Z,1.10
2018-12-04T16:56:57.298Z,1.50
2018-12-04T17:02:00.457Z,1.40
2018-12-04T17:07:03.623Z,1.30
2018-12-04T17:12:06.904Z,1.20
2018-12-04T17:17:10.431Z,1.07
2018-12-04T17:22:14.627Z,1.40
2018-12-04T17:27:17.948Z,1.63
2018-12-04T17:32:21.330Z,1.27
2018-12-04T17:37:24.698Z,2.13
2018-12-04T17:42:28.050Z,2.77
2018-12-04T17:47:31.330Z,1.27
2018-12-04T17:52:34.764Z,2.20
2018-12-04T17:57:38.255Z,2.33
2018-12-04T18:02:41.516Z,1.87
2018-12-04T18:07:44.740Z,1.73
2018-12-04T18:12:47.954Z,2.03
2018-12-04T18:17:51.154Z,1.50
2018-12-04T18:22:54.521Z,1.37
2018-12-04T18:27:57.883Z,1.50
2018-12-04T18:33:01.247Z,1.67
2018-12-04T18:38:04.612Z,1.70
2018-12-04T18:43:07.926Z,1.60
2018-12-04T18:48:11.138Z,1.87
2018-12-04T18:53:14.515Z,3.57
2018-12-04T18:58:17.694Z,1.87
2018-12-04T19:03:20.943Z,2.20
2018-12-04T19:08:29.652Z,1.90
2018-12-04T19:13:33.094Z,1.57
2018-12-04T19:18:36.330Z,1.80
2018-12-04T19:23:40.323Z,2.00
2018-12-04T19:28:43.524Z,2.27
2018-12-04T19:33:46.884Z,2.30
2018-12-04T19:38:50.095Z,4.73
2018-12-04T19:43:56.394Z,1.80
2018-12-04T19:48:58.994Z,2.03
2018-12-04T19:54:02.520Z,2.00
2018-12-04T19:59:05.806Z,2.43
2018-12-04T20:04:12.319Z,3.20
2018-12-04T20:09:21.356Z,2.03
2018-12-04T20:14:28.351Z,2.30
2018-12-04T20:19:37.624Z,2.77
2018-12-04T20:24:47.097Z,2.57
2018-12-04T20:29:56.435Z,2.30
2018-12-04T20:35:06.069Z,2.53
2018-12-04T20:40:15.719Z,2.60
2018-12-04T20:45:25.430Z,2.33
2018-12-04T20:50:34.925Z,2.20
2018-12-04T20:55:44.125Z,2.03
2018-12-04T21:00:47.571Z,2.17
2018-12-04T21:05:56.455Z,1.90
2018-12-04T21:11:03.291Z,2.00
2018-12-04T21:16:12.219Z,1.87
2018-12-04T21:21:17.204Z,2.03
2018-12-04T21:26:26.071Z,2.03
2018-12-04T21:31:40.594Z,1.90
2018-12-04T21:36:55.453Z,1.70
2018-12-04T21:42:10.236Z,1.63
2018-12-04T21:47:24.290Z,2.00
2018-12-04T21:52:33.536Z,1.53
2018-12-04T21:57:38.883Z,1.87
2018-12-04T22:02:47.597Z,1.60
2018-12-04T22:07:57.024Z,1.60
2018-12-04T22:13:06.790Z,2.63
2018-12-04T22:18:13.723Z,1.57
2018-12-04T22:23:22.551Z,1.63
2018-12-04T22:28:31.935Z,1.70
2018-12-04T22:33:41.174Z,1.47
2018-12-04T22:38:47.351Z,1.50
2018-12-04T22:43:56.907Z,2.70
2018-12-04T22:49:06.502Z,1.77
2018-12-04T22:54:13.495Z,1.90
2018-12-04T22:59:26.294Z,2.07
2018-12-04T23:04:33.230Z,2.30
2018-12-04T23:09:42.235Z,1.80
2018-12-04T23:14:51.789Z,1.60
2018-12-04T23:20:01.465Z,1.63
2018-12-04T23:25:08.648Z,1.60
2018-12-04T23:30:18.468Z,1.93
2018-12-04T23:35:25.234Z,1.10
2018-12-04T23:40:34.296Z,1.57
2018-12-04T23:45:41.051Z,1.60
2018-12-04T23:50:47.661Z,1.23
2018-12-04T23:55:57.060Z,1.77
